Latest Weather Observations for Tewantin

IDQ60901

Issued at 6:01 am EST Wednesday 20 November 2019 (issued every 10 minutes, with the page automatically refreshed every 10 minutes)

About weather observations | Map of Brisbane area stations | Latest observations for Brisbane area | Other Formats
Station Details ID: 040908 Name: TEWANTIN RSL PARK Lat: -26.39 Lon: 153.04 Height: 6.4 m
Data from the previous 72 hours. | See also: Recent months at Tewantin
Date/Time
EST
Temp
°C
App
Temp
°C
Dew
Point
°C
Rel
Hum
%
Delta-T
°C
Wind Press
QNH
hPa
Press
MSL
hPa
Rain since
9am
mm
Dir  Spd
km/h
Gust
km/h
Spd
kts
Gust
kts
20/06:00am 21.1 25.4 21.1 100 0.0 CALM 0 0 0 0 1014.6 1014.6 0.0
20/05:30am 20.7 24.4 20.7 100 0.0 WNW 2 6 1 3 1014.3 1014.3 0.0
20/05:00am 20.4 23.9 20.4 100 0.0 WNW 2 7 1 4 1014.1 1014.1 0.0
20/04:30am 20.6 23.8 20.6 100 0.0 WNW 4 9 2 5 1013.7 1013.7 0.0
20/04:00am 20.6 24.2 20.6 100 0.0 W 2 6 1 3 1013.5 1013.5 0.0
20/03:30am 20.7 24.4 20.7 100 0.0 W 2 6 1 3 1013.4 1013.4 0.0
20/03:00am 21.3 24.9 21.3 100 0.0 NNE 4 9 2 5 1013.3 1013.3 0.0
20/02:30am 21.4 24.5 21.4 100 0.0 NNE 7 11 4 6 1013.1 1013.1 0.0
20/02:00am 21.3 24.5 21.3 100 0.0 NNE 6 7 3 4 1013.3 1013.3 0.0
20/01:30am 21.5 24.8 21.5 100 0.0 NNE 6 7 3 4 1013.5 1013.5 0.0
20/01:00am 21.6 26.1 21.6 100 0.0 CALM 0 6 0 3 1013.7 1013.7 0.0
20/12:30am 21.6 25.4 21.6 100 0.0 NNW 4 7 2 4 1013.7 1013.7 0.0
20/12:00am 21.6 25.0 21.6 100 0.0 NNW 6 9 3 5 1013.9 1013.9 0.0
 
Date/Time
EST
Temp
°C
App
Temp
°C
Dew
Point
°C
Rel
Hum
%
Delta-T
°C
Wind Press
QNH
hPa
Press
MSL
hPa
Rain since
9am
mm
Dir  Spd
km/h
Gust
km/h
Spd
kts
Gust
kts
19/11:30pm 21.5 24.6 21.5 100 0.0 N 7 9 4 5 1014.0 1014.0 0.0
19/11:00pm 21.5 24.7 21.3 99 0.1 NNW 6 9 3 5 1014.3 1014.3 0.0
19/10:30pm 21.8 25.0 21.6 99 0.1 NW 7 9 4 5 1014.4 1014.4 0.0
19/10:00pm 21.7 24.6 21.0 96 0.5 NW 7 11 4 6 1014.4 1014.4 0.0
19/09:30pm 21.9 24.7 20.5 92 0.9 NW 6 9 3 5 1014.3 1014.3 0.0
19/09:00pm 22.8 26.1 21.8 94 0.7 NNW 7 9 4 5 1014.3 1014.3 0.0
19/08:30pm 23.1 26.1 21.9 93 0.8 N 9 15 5 8 1013.9 1013.9 0.0
19/08:00pm 23.3 26.1 22.3 94 0.7 N 11 17 6 9 1013.6 1013.6 0.0
19/07:30pm 23.3 25.3 22.3 94 0.7 N 15 20 8 11 1013.4 1013.4 0.0
19/07:00pm 23.4 25.0 22.2 93 0.8 NNE 17 22 9 12 1013.3 1013.3 0.0
19/06:30pm 23.5 25.3 21.9 91 1.1 NNE 15 24 8 13 1012.9 1012.9 0.0
19/06:00pm 23.7 24.1 21.0 85 1.8 NNE 20 30 11 16 1012.5 1012.5 0.0
19/05:30pm 24.2 25.0 21.3 84 1.9 NNE 19 30 10 16 1012.2 1012.2 0.0
19/05:00pm 24.4 24.5 21.1 82 2.2 NNE 22 32 12 17 1012.1 1012.1 0.0
19/04:30pm 24.7 25.4 20.4 77 2.8 NE 17 22 9 12 1011.8 1011.8 0.0
19/04:00pm 25.3 26.7 21.0 77 2.8 NE 15 24 8 13 1011.9 1011.9 0.0
19/03:30pm 25.4 26.1 20.4 74 3.3 NE 17 28 9 15 1012.0 1012.0 0.0
19/03:00pm 25.3 25.1 19.4 70 3.8 NE 19 28 10 15 1012.2 1012.2 0.0
19/02:30pm 25.8 26.3 20.1 71 3.7 NE 17 28 9 15 1012.3 1012.3 0.0
19/02:00pm 26.0 26.8 19.9 69 4.0 NE 15 22 8 12 1012.9 1012.9 0.0
19/01:30pm 25.9 26.5 19.5 68 4.1 NE 15 22 8 12 1013.2 1013.2 0.0
19/01:00pm 25.7 25.5 18.6 65 4.5 NE 17 24 9 13 1013.5 1013.5 0.0
19/12:30pm 26.5 27.8 20.1 68 4.2 NE 13 22 7 12 1014.0 1014.0 0.0
19/12:00pm 26.0 26.4 18.9 65 4.5 ENE 15 24 8 13 1014.6 1014.6 0.0
19/11:30am 26.0 26.5 18.4 63 4.8 NE 13 20 7 11 1015.0 1015.0 0.0
19/11:00am 26.2 27.1 19.3 65 4.4 ENE 13 19 7 10 1015.5 1015.5 0.0
19/10:30am 26.0 27.6 19.2 66 4.4 NNE 9 17 5 9 1015.8 1015.8 0.0
19/10:00am 25.5 26.8 18.4 65 4.5 ENE 9 13 5 7 1016.2 1016.2 0.0
19/09:30am 26.0 28.4 20.1 70 3.8 ENE 7 17 4 9 1016.6 1016.6 0.0
19/09:00am 24.7 26.0 17.2 63 4.6 N 6 9 3 5 1016.7 1016.7 0.0
19/08:30am 24.9 27.0 17.1 62 4.8 NE 2 7 1 4 1016.8 1016.8 0.0
19/08:00am 24.7 27.6 18.2 67 4.1 CALM 0 0 0 0 1016.7 1016.7 0.0
19/07:30am 24.1 26.2 19.0 73 3.2 SSE 6 7 3 4 1016.6 1016.6 0.0
19/07:00am 23.4 26.0 19.3 78 2.6 SSW 4 6 2 3 1016.8 1016.8 0.0
19/06:30am 21.7 24.6 18.3 81 2.1 CALM 0 6 0 3 1016.7 1016.7 0.0
19/06:00am 20.6 23.0 18.9 90 1.1 W 4 7 2 4 1016.6 1016.6 0.0
19/05:30am 19.9 22.8 19.1 95 0.5 SW 2 6 1 3 1016.3 1016.3 0.0
19/05:00am 20.1 23.5 19.3 95 0.5 CALM 0 0 0 0 1016.0 1016.0 0.0
19/04:30am 20.4 23.1 19.4 94 0.6 SSW 4 7 2 4 1015.7 1015.7 0.0
19/04:00am 20.4 23.2 18.9 91 0.9 SW 2 7 1 4 1015.3 1015.3 0.0
19/03:30am 20.4 23.2 18.9 91 0.9 SW 2 7 1 4 1015.2 1015.2 0.0
19/03:00am 20.5 22.8 18.6 89 1.2 SW 4 7 2 4 1015.2 1015.2 0.0
19/02:30am 20.4 23.0 18.3 88 1.3 SW 2 6 1 3 1015.2 1015.2 0.0
19/02:00am 20.3 22.6 18.6 90 1.1 SSW 4 7 2 4 1015.3 1015.3 0.0
19/01:30am 20.0 21.6 18.3 90 1.1 SW 7 9 4 5 1015.4 1015.4 0.0
19/01:00am 19.8 21.4 17.9 89 1.2 SW 6 9 3 5 1015.7 1015.7 0.0
19/12:30am 19.9 21.7 18.4 91 0.9 SSW 6 7 3 4 1015.9 1015.9 0.0
19/12:00am 19.8 21.7 17.6 87 1.3 SW 4 7 2 4 1016.3 1016.3 0.0
 
Date/Time
EST
Temp
°C
App
Temp
°C
Dew
Point
°C
Rel
Hum
%
Delta-T
°C
Wind Press
QNH
hPa
Press
MSL
hPa
Rain since
9am
mm
Dir  Spd
km/h
Gust
km/h
Spd
kts
Gust
kts
18/11:30pm 20.1 22.5 17.1 83 1.8 CALM 0 6 0 3 1016.6 1016.6 0.0
18/11:00pm 20.9 22.8 17.7 82 2.0 E 4 9 2 5 1017.1 1017.1 0.0
18/10:30pm 20.9 22.0 17.1 79 2.3 E 7 9 4 5 1017.2 1017.2 0.0
18/10:00pm 21.0 22.1 17.0 78 2.4 ENE 7 13 4 7 1017.6 1017.6 0.0
18/09:30pm 21.1 21.7 16.9 77 2.6 E 9 13 5 7 1017.8 1017.8 0.0
18/09:00pm 21.3 22.4 17.1 77 2.6 E 7 11 4 6 1017.8 1017.8 0.0
18/08:30pm 21.6 22.4 17.2 76 2.7 ESE 9 15 5 8 1017.9 1017.9 0.0
18/08:00pm 21.8 22.1 17.0 74 2.9 ESE 11 17 6 9 1017.8 1017.8 0.0
18/07:30pm 21.9 22.1 16.8 73 3.1 ESE 11 17 6 9 1017.8 1017.8 0.0
18/07:00pm 22.0 22.3 16.9 73 3.1 ESE 11 17 6 9 1017.5 1017.5 0.0
18/06:30pm 22.1 22.3 16.8 72 3.2 ESE 11 17 6 9 1017.4 1017.4 0.0
18/06:00pm 22.5 21.8 16.3 68 3.8 ESE 15 22 8 12 1017.2 1017.2 0.0
18/05:30pm 22.7 22.4 16.5 68 3.8 ESE 13 22 7 12 1016.9 1016.9 0.0
18/05:00pm 22.9 22.9 16.2 66 4.1 SE 11 20 6 11 1016.5 1016.5 0.0
18/04:30pm 22.9 22.1 16.2 66 4.1 SE 15 28 8 15 1016.1 1016.1 0.0
18/04:00pm 23.2 22.4 16.0 64 4.4 SE 15 22 8 12 1016.0 1016.0 0.0
18/03:30pm 23.4 23.2 16.7 66 4.1 SE 13 24 7 13 1016.0 1016.0 0.0
18/03:00pm 23.7 22.5 16.0 62 4.7 ESE 17 28 9 15 1016.0 1016.0 0.0
18/02:30pm 23.9 22.9 16.7 64 4.4 SE 17 28 9 15 1016.1 1016.1 0.0
18/02:00pm 24.1 23.0 16.4 62 4.7 SE 17 30 9 16 1016.2 1016.2 0.0
18/01:30pm 23.3 21.7 15.9 63 4.5 ESE 19 30 10 16 1016.6 1016.6 0.0
18/01:00pm 24.2 23.2 16.7 63 4.6 SSE 17 24 9 13 1016.8 1016.8 0.0
18/12:30pm 24.3 23.3 16.6 62 4.7 SSE 17 33 9 18 1017.1 1017.1 0.0
18/12:00pm 24.9 24.4 17.9 65 4.4 SE 17 32 9 17 1017.3 1017.3 0.0
18/11:30am 25.0 24.1 17.7 64 4.6 SE 19 32 10 17 1017.6 1017.6 0.0
18/11:00am 25.0 23.8 17.5 63 4.7 SSE 20 33 11 18 1018.0 1018.0 0.0
18/10:30am 24.0 22.8 17.0 65 4.3 SSE 19 35 10 19 1018.2 1018.2 0.0
18/10:00am 24.6 23.4 17.1 63 4.6 SSE 19 26 10 14 1018.3 1018.3 0.0
18/09:30am 24.4 23.5 16.9 63 4.6 SE 17 32 9 17 1018.5 1018.5 0.0
18/09:00am 23.6 21.8 16.9 66 4.1 SE 22 35 12 19 1018.4 1018.4 6.4
18/08:30am 23.0 21.8 17.0 69 3.7 SE 19 32 10 17 1018.4 1018.4 6.4
18/08:00am 23.2 22.8 17.2 69 3.7 SE 15 30 8 16 1018.4 1018.4 6.4
18/07:30am 22.6 21.7 16.9 70 3.5 SSE 17 35 9 19 1018.2 1018.2 6.4
18/07:00am 23.0 22.0 17.5 71 3.4 SSE 19 33 10 18 1018.0 1018.0 6.4
18/06:30am 22.6 21.9 17.3 72 3.3 SSE 17 28 9 15 1017.6 1017.6 6.4
18/06:00am 22.3 21.4 17.7 75 2.8 SSE 19 30 10 16 1017.1 1017.1 6.4
18/05:30am 20.8 20.9 18.4 86 1.5 S 15 20 8 11 1016.7 1016.7 6.4
18/05:00am 20.6 20.5 17.8 84 1.7 S 15 26 8 14 1016.3 1016.3 6.4
18/04:30am 21.0 21.3 17.8 82 2.0 S 13 20 7 11 1015.9 1015.9 6.4
18/04:00am 21.7 20.6 17.3 76 2.7 S 19 30 10 16 1015.4 1015.4 6.4
18/03:30am 22.3 21.5 17.0 72 3.2 SSE 17 28 9 15 1015.1 1015.1 6.4
18/03:00am 22.3 22.0 18.3 78 2.5 SSE 17 28 9 15 1015.0 1015.0 6.4
18/02:30am 22.2 22.6 18.2 78 2.5 SSE 13 20 7 11 1015.1 1015.1 6.4
18/02:00am 22.3 22.6 18.7 80 2.3 SSE 15 24 8 13 1014.9 1014.9 6.4
18/01:30am 22.4 22.6 20.1 87 1.5 SSE 19 35 10 19 1015.0 1015.0 6.4
18/01:00am 22.7 23.5 21.3 92 0.9 SSE 19 32 10 17 1015.2 1015.2 6.4
18/12:30am 22.3 23.2 21.6 96 0.5 SSE 19 37 10 20 1015.2 1015.2 6.4
18/12:00am 22.8 23.4 21.4 92 0.9 S 20 32 11 17 1015.0 1015.0 6.4
 
Date/Time
EST
Temp
°C
App
Temp
°C
Dew
Point
°C
Rel
Hum
%
Delta-T
°C
Wind Press
QNH
hPa
Press
MSL
hPa
Rain since
9am
mm
Dir  Spd
km/h
Gust
km/h
Spd
kts
Gust
kts
17/11:30pm 22.8 26.5 22.6 99 0.1 SW 7 13 4 7 1014.2 1014.2 6.4
17/11:00pm 22.0 26.0 22.0 100 0.0 WSW 4 7 2 4 1013.9 1013.9 6.4
17/10:30pm 21.9 25.2 21.9 100 0.0 WNW 7 9 4 5 1013.5 1013.5 6.4
17/10:00pm 22.0 25.6 22.0 100 0.0 NNW 6 7 3 4 1013.4 1013.4 6.4
17/09:30pm 21.9 25.7 21.7 99 0.1 W 4 9 2 5 1013.2 1013.2 6.4
17/09:00pm 22.0 26.2 21.7 98 0.2 WNW 2 7 1 4 1012.9 1012.9 6.4
17/08:30pm 22.6 25.5 21.8 95 0.5 NNW 9 15 5 8 1012.5 1012.5 6.4
17/08:00pm 22.8 25.0 21.8 94 0.7 N 13 17 7 9 1012.8 1012.8 6.2
17/07:30pm 22.7 24.4 21.7 94 0.7 N 15 20 8 11 1012.6 1012.6 6.2
17/07:00pm 22.9 24.1 21.5 92 0.9 N 17 33 9 18 1011.9 1011.9 6.2
17/06:30pm 22.4 25.5 22.2 99 0.1 NNE 9 13 5 7 1011.8 1011.8 6.2
17/06:00pm 22.2 24.4 21.2 94 0.7 NNW 11 17 6 9 1010.9 1010.9 6.2
17/05:30pm 22.6 24.8 21.8 95 0.5 N 13 19 7 10 1010.0 1010.0 6.2
17/05:00pm 22.2 23.7 22.0 99 0.1 NNE 17 26 9 14 1009.8 1009.8 6.2
17/04:30pm 22.6 24.8 22.6 100 0.0 NNE 15 20 8 11 1009.4 1009.4 6.2
17/04:00pm 22.1 24.4 22.1 100 0.0 ENE 13 22 7 12 1009.3 1009.3 6.2
17/03:30pm 21.7 23.4 21.7 100 0.0 SE 15 24 8 13 1008.1 1008.1 6.2
17/03:12pm 22.0 22.2 22.0 100 0.0 S 24 50 13 27 1009.2 1009.2 5.0
17/03:00pm 23.1 21.6 21.0 88 1.4 SSW 30 56 16 30 1007.1 1007.1 2.0
17/02:55pm 25.5 25.8 21.6 79 2.6 WSW 22 56 12 30 1007.1 1007.1 0.2
17/02:30pm 29.0 29.2 23.4 72 3.8 NNE 28 43 15 23 1006.0 1006.0 0.0
17/02:00pm 27.6 26.8 22.3 73 3.6 NNE 30 44 16 24 1006.8 1006.8 0.0
17/01:40pm 27.7 26.5 22.2 72 3.7 NNE 32 50 17 27 1007.5 1007.5 0.0
17/01:30pm 28.3 28.1 22.8 72 3.7 NNE 28 43 15 23 1007.8 1007.8 0.0
17/01:14pm 27.3 26.5 21.6 71 3.8 NNE 28 46 15 25 1008.3 1008.3 0.0
17/01:00pm 28.1 28.6 22.6 72 3.7 NNE 24 37 13 20 1009.1 1009.1 0.0
17/12:30pm 28.2 29.9 22.4 71 3.9 NE 17 30 9 16 1010.3 1010.3 0.0
17/12:00pm 27.9 29.6 23.1 75 3.3 NE 19 28 10 15 1011.1 1011.1 0.0
17/11:30am 27.5 28.5 21.8 71 3.8 NE 19 26 10 14 1011.6 1011.6 0.0
17/11:00am 28.6 31.2 22.6 70 4.1 NE 13 20 7 11 1012.3 1012.3 0.0
17/10:30am 28.0 30.4 20.8 65 4.8 NE 9 17 5 9 1012.8 1012.8 0.0
17/10:00am 28.1 31.2 22.1 70 4.0 NNE 9 15 5 8 1013.3 1013.3 0.0
17/09:30am 26.6 27.7 19.7 66 4.5 N 13 20 7 11 1013.6 1013.6 0.0
17/09:00am 26.6 28.8 20.4 69 4.1 NNE 9 19 5 10 1014.0 1014.0 5.4
17/08:30am 25.9 28.4 19.8 69 4.0 N 6 9 3 5 1014.5 1014.5 5.4
17/08:00am 24.5 27.7 20.6 79 2.5 NNE 4 6 2 3 1014.6 1014.6 5.4
17/07:30am 24.1 27.4 21.4 85 1.8 SSW 6 11 3 6 1014.6 1014.6 5.4
17/07:00am 23.5 26.8 21.9 91 1.1 S 7 9 4 5 1014.6 1014.6 5.4
17/06:30am 22.9 27.2 22.6 98 0.2 SW 4 7 2 4 1014.7 1014.7 5.4

Latest Capital City Observations: Canberra | Sydney | Melbourne | Brisbane | Adelaide | Perth | Hobart | Darwin

Other formats

Comma delimited format used in spreadsheet applications
http://www.bom.gov.au/fwo/IDQ60901/IDQ60901.94570.axf

JavaScript Object Notation format (JSON) in row-major order
http://www.bom.gov.au/fwo/IDQ60901/IDQ60901.94570.json

Data quality

Most of these data are generated automatically and are frequently updated. Quality checks on data are not normally performed. It is possible for incorrect values to appear. Refer to information at About Latest Weather Observations and please check the disclaimer before using these data.